Fargo, ND (58102)

6:10 PM CDT on May 28, 2015 (GMT -0500)
Hector International | | Change Station
CLOSE
Current Station
Airport
Location: Fargo,
Elevation: 899 ft
Nearby Weather Stations

Elev 899 ft 46.91 °N, 96.81 °W | Updated 9 minutes ago

Rain
Rain
66 °F
Feels Like 66 °F
N
8
Wind Variable Wind from South

Today
High -- | Low -- °F
--% Chance of Precip.
Yesterday
High -- | Low -- °F
Precip. -- in
5:39 AM 9:10 PM
Waxing Gibbous, 79% visible
Pressure 29.79 in
Visibility 4.0 miles
Clouds Few 5500 ft
Mostly Cloudy 8500 ft
Overcast 10000 ft
Dew Point 59 °F
Humidity 78%
Rainfall 0.59 in
Snow Depth Not available.
UV 1 out of 12
Pollen 6.10 out of 12
Air Quality Not available.
Flu Activity Sporadic
SPECI KFAR 282301Z 17007KT 4SM RA FEW055 BKN085 OVC100 19/15 A2979 RMK AO2 PRESFR P0003 T01890150

More Conditions Fewer Conditions

Pressure 29.79 in
Visibility 4.0 miles
Clouds Few 5500 ft
Mostly Cloudy 8500 ft
Overcast 10000 ft
Dew Point 59 °F
Humidity 78%
Rainfall 0.59 in
Snow Depth Not available.
UV 1 out of 12
Pollen 6.10 out of 12
Air Quality Not available.
Flu Activity Sporadic
SPECI KFAR 282301Z 17007KT 4SM RA FEW055 BKN085 OVC100 19/15 A2979 RMK AO2 PRESFR P0003 T01890150

More Conditions Fewer Conditions

10-Day Weather Forecast

Almanac

Astronomy

May. 28, 2015 Rise Set
Actual Time
Civil Twilight
Nautical Twilight
Astronomical Twilight
Moon
Length of Visible Light
Length of Day
Tomorrow will be .
, % of the Moon is Illuminated

Today's Extremes

State Highs State Lows

Community

WunderPhotos

Upload Photos

1,825,089 photos uploaded!

WunderBlogs® & News

Nearby

Air Quality

  Air Quality AQ Index Pollutant
Not available.

Snow Depth

Station Depth Elevation

Earthquake Activity

City Distance Mag. Time & Date
Minimum magnitude displayed is 2.5.

Coastal Water Temperatures

Place Temperature

Stations

Nearby Weather Stations

Station Location Temp. Windchill Dew Point Humidity Wind Precip. Elev Updated Type